createdAt,value
2019-03-31T00:03:43.730Z,64.50
2019-03-31T00:08:51.342Z,64.70
2019-03-31T00:13:51.531Z,64.50
2019-03-31T00:18:51.699Z,64.50
2019-03-31T00:23:51.883Z,64.60
2019-03-31T00:28:52.063Z,64.50
2019-03-31T00:33:52.257Z,64.70
2019-03-31T00:38:52.463Z,65.30
2019-03-31T00:43:52.655Z,65.40
2019-03-31T00:48:52.870Z,65.40
2019-03-31T00:53:53.121Z,65.70
2019-03-31T00:58:53.299Z,65.80
2019-03-31T01:03:53.738Z,66.20
2019-03-31T01:08:54.653Z,66.00
2019-03-31T01:13:55.003Z,66.40
2019-03-31T01:18:55.465Z,66.80
2019-03-31T01:23:55.702Z,67.10
2019-03-31T01:28:57.251Z,68.00
2019-03-31T01:33:58.496Z,68.60
2019-03-31T01:38:58.951Z,68.90
2019-03-31T01:43:59.134Z,71.00
2019-03-31T01:48:59.563Z,70.00
2019-03-31T01:53:59.848Z,70.00
2019-03-31T01:59:00.027Z,70.70
2019-03-31T02:04:00.370Z,70.70
2019-03-31T02:09:00.876Z,70.90
2019-03-31T02:14:03.026Z,70.70
2019-03-31T02:19:03.294Z,70.40
2019-03-31T02:24:03.490Z,71.60
2019-03-31T02:29:03.722Z,71.90
2019-03-31T02:34:03.896Z,72.30
2019-03-31T02:39:04.956Z,72.60
2019-03-31T02:44:06.127Z,72.20
2019-03-31T02:49:06.419Z,71.60
2019-03-31T02:54:06.765Z,72.50
2019-03-31T02:59:07.724Z,72.40
2019-03-31T03:04:09.919Z,72.90
2019-03-31T03:09:10.104Z,72.30
2019-03-31T03:14:12.896Z,72.90
2019-03-31T03:19:24.856Z,72.70
2019-03-31T03:24:25.219Z,72.40
2019-03-31T03:29:25.487Z,73.00
2019-03-31T03:34:25.652Z,73.00
2019-03-31T03:39:26.140Z,72.30
2019-03-31T03:44:26.331Z,72.20
2019-03-31T03:49:45.462Z,72.10
2019-03-31T03:54:45.705Z,71.70
2019-03-31T03:59:45.889Z,71.60
2019-03-31T04:04:46.108Z,71.40
2019-03-31T04:09:46.805Z,71.10
2019-03-31T04:14:47.274Z,70.90
2019-03-31T04:19:47.790Z,71.00
2019-03-31T04:24:48.000Z,70.90
2019-03-31T04:29:48.214Z,71.00
2019-03-31T04:34:48.429Z,71.10
2019-03-31T04:39:48.618Z,71.30
2019-03-31T04:44:49.882Z,71.60
2019-03-31T04:49:50.082Z,71.10
2019-03-31T04:54:50.303Z,71.90
2019-03-31T04:59:51.035Z,72.10
2019-03-31T05:04:51.235Z,71.90
2019-03-31T05:09:52.030Z,71.60
2019-03-31T05:14:52.190Z,72.10
2019-03-31T05:19:52.381Z,72.10
2019-03-31T05:24:52.571Z,72.60
2019-03-31T05:29:53.115Z,72.70
2019-03-31T05:34:54.555Z,72.30
2019-03-31T05:39:55.482Z,73.30
2019-03-31T05:44:55.662Z,73.00
2019-03-31T05:49:56.070Z,73.60
2019-03-31T05:54:56.605Z,73.70
2019-03-31T05:59:57.126Z,73.90
2019-03-31T06:04:57.550Z,73.80
2019-03-31T06:09:57.715Z,73.60
2019-03-31T06:14:57.862Z,73.40
2019-03-31T06:19:58.350Z,73.90
2019-03-31T06:24:58.527Z,74.00
2019-03-31T06:29:58.738Z,74.00
2019-03-31T06:34:58.943Z,74.40
2019-03-31T06:39:59.134Z,72.80
2019-03-31T06:44:59.608Z,71.70
2019-03-31T06:50:00.044Z,71.50
2019-03-31T06:55:00.512Z,70.30
2019-03-31T07:00:00.793Z,71.00
2019-03-31T07:05:02.240Z,71.50
2019-03-31T07:10:02.522Z,69.30
2019-03-31T07:15:03.027Z,68.90
2019-03-31T07:20:04.962Z,69.00
2019-03-31T07:25:06.704Z,68.90
2019-03-31T07:30:08.765Z,69.50
2019-03-31T07:35:18.524Z,66.80
2019-03-31T07:40:14.725Z,67.60
2019-03-31T07:45:16.644Z,68.30
2019-03-31T07:50:17.380Z,68.30
2019-03-31T07:55:19.197Z,69.50
2019-03-31T08:00:22.142Z,68.00
2019-03-31T08:05:32.834Z,68.10
2019-03-31T08:10:24.311Z,67.70
2019-03-31T08:15:24.476Z,63.70
2019-03-31T08:20:24.759Z,66.10
2019-03-31T08:25:24.943Z,64.80
2019-03-31T08:30:25.130Z,62.80
2019-03-31T08:35:25.426Z,63.80
2019-03-31T08:40:25.667Z,63.80
2019-03-31T08:45:25.942Z,64.40
2019-03-31T08:50:26.142Z,65.10
2019-03-31T08:55:26.402Z,64.50
2019-03-31T09:00:34.114Z,63.80
2019-03-31T09:05:34.290Z,63.00
2019-03-31T09:10:34.590Z,62.30
2019-03-31T09:15:35.994Z,62.10
2019-03-31T09:20:36.314Z,60.90
2019-03-31T09:25:36.776Z,60.50
2019-03-31T09:30:37.039Z,58.80
2019-03-31T09:35:37.222Z,59.50
2019-03-31T09:40:37.411Z,59.10
2019-03-31T09:45:37.979Z,59.30
2019-03-31T09:50:38.161Z,57.90
2019-03-31T09:55:38.768Z,58.70
2019-03-31T10:00:46.875Z,59.90
2019-03-31T10:05:48.186Z,57.70
2019-03-31T10:10:48.829Z,57.80
2019-03-31T10:15:49.022Z,56.30
2019-03-31T10:20:49.196Z,54.30
2019-03-31T10:25:49.721Z,56.70
2019-03-31T10:30:49.899Z,53.70
2019-03-31T10:35:50.114Z,55.60
2019-03-31T10:40:50.387Z,54.60
2019-03-31T10:45:50.590Z,55.60
2019-03-31T10:50:50.847Z,55.40
2019-03-31T10:55:51.039Z,55.10
2019-03-31T11:00:51.307Z,55.00
2019-03-31T11:05:51.487Z,52.10
2019-03-31T11:10:51.932Z,50.90
2019-03-31T11:15:52.170Z,51.30
2019-03-31T11:20:52.499Z,48.90
2019-03-31T11:25:52.687Z,50.60
2019-03-31T11:30:52.863Z,49.30
2019-03-31T11:35:53.099Z,47.40
2019-03-31T11:40:53.314Z,48.00
2019-03-31T11:45:53.487Z,51.20
2019-03-31T11:50:53.658Z,45.80
2019-03-31T11:55:53.858Z,47.30
2019-03-31T12:00:56.375Z,44.50
2019-03-31T12:05:56.562Z,49.30
2019-03-31T12:10:57.111Z,46.50
2019-03-31T12:15:57.286Z,47.00
2019-03-31T12:20:57.446Z,49.40
2019-03-31T12:25:57.978Z,47.90
2019-03-31T12:30:58.169Z,44.90
2019-03-31T12:35:58.414Z,50.30
2019-03-31T12:40:58.590Z,48.20
2019-03-31T12:45:58.812Z,49.80
2019-03-31T12:50:59.266Z,45.00
2019-03-31T12:56:00.608Z,42.90
2019-03-31T13:01:01.392Z,45.80
2019-03-31T13:06:02.027Z,44.70
2019-03-31T13:11:02.215Z,44.80
2019-03-31T13:16:02.583Z,46.20
2019-03-31T13:21:03.223Z,45.50
2019-03-31T13:26:03.879Z,45.70
2019-03-31T13:31:04.729Z,50.00
2019-03-31T13:36:05.205Z,50.10
2019-03-31T13:41:05.922Z,48.40
2019-03-31T13:46:06.174Z,49.10
2019-03-31T13:51:06.379Z,47.20
2019-03-31T13:56:06.546Z,47.30
2019-03-31T14:01:06.845Z,51.50
2019-03-31T14:06:07.082Z,50.20
2019-03-31T14:11:07.924Z,49.80
2019-03-31T14:16:08.129Z,49.40
2019-03-31T14:21:08.318Z,47.40
2019-03-31T14:26:08.646Z,50.00
2019-03-31T14:31:20.558Z,48.20
2019-03-31T14:36:20.709Z,46.20
2019-03-31T14:41:21.243Z,47.70
2019-03-31T14:46:21.448Z,47.40
2019-03-31T14:51:21.974Z,48.40
2019-03-31T14:56:22.150Z,48.30
2019-03-31T15:01:22.339Z,49.90
2019-03-31T15:06:22.530Z,48.80
2019-03-31T15:11:23.056Z,47.20
2019-03-31T15:16:23.234Z,45.90
2019-03-31T15:21:23.586Z,48.10
2019-03-31T15:26:23.910Z,48.20
2019-03-31T15:31:24.357Z,48.90
2019-03-31T15:36:24.582Z,48.10
2019-03-31T15:41:24.760Z,47.00
2019-03-31T15:46:25.144Z,48.80
2019-03-31T15:51:25.623Z,50.50
2019-03-31T15:56:25.818Z,47.80
2019-03-31T16:01:26.005Z,49.20
2019-03-31T16:06:26.197Z,46.40
2019-03-31T16:11:25.842Z,48.50
2019-03-31T16:16:25.678Z,49.90
2019-03-31T16:21:25.551Z,49.10
2019-03-31T16:26:25.538Z,49.90
2019-03-31T16:31:25.187Z,49.40
2019-03-31T16:36:24.866Z,49.10
2019-03-31T16:41:24.846Z,46.80
2019-03-31T16:46:35.130Z,46.80
2019-03-31T16:51:35.009Z,47.50
2019-03-31T16:56:34.734Z,47.80
2019-03-31T17:01:34.356Z,46.90
2019-03-31T17:06:35.097Z,46.30
2019-03-31T17:11:34.767Z,46.50
2019-03-31T17:16:34.411Z,46.40
2019-03-31T17:21:34.054Z,47.90
2019-03-31T17:26:33.683Z,48.70
2019-03-31T17:31:33.459Z,48.60
2019-03-31T17:36:33.104Z,47.80
2019-03-31T17:41:33.825Z,48.20
2019-03-31T17:46:33.582Z,48.80
2019-03-31T17:51:33.278Z,48.80
2019-03-31T17:56:33.222Z,49.20
2019-03-31T18:01:32.851Z,49.90
2019-03-31T18:06:32.502Z,50.10
2019-03-31T18:11:32.126Z,49.80
2019-03-31T18:16:32.057Z,51.20
2019-03-31T18:21:31.746Z,50.60
2019-03-31T18:26:31.382Z,51.30
2019-03-31T18:31:31.046Z,50.60
2019-03-31T18:36:36.801Z,52.30
2019-03-31T18:41:32.090Z,52.70
2019-03-31T18:46:31.786Z,51.90
2019-03-31T18:51:31.434Z,52.60
2019-03-31T18:56:50.179Z,50.10
2019-03-31T19:02:25.220Z,51.40
2019-03-31T19:07:35.998Z,52.30
2019-03-31T19:13:00.753Z,53.60
2019-03-31T19:18:10.577Z,53.90
2019-03-31T19:23:28.686Z,54.30
2019-03-31T19:28:47.260Z,52.30
2019-03-31T19:34:04.938Z,52.20
2019-03-31T19:39:30.086Z,52.20
2019-03-31T19:45:07.258Z,53.00
2019-03-31T19:50:26.034Z,55.10
2019-03-31T19:55:44.786Z,52.60
2019-03-31T20:01:04.870Z,53.90
2019-03-31T20:06:34.190Z,54.70
2019-03-31T20:11:38.641Z,55.00
2019-03-31T20:16:57.378Z,55.40
2019-03-31T20:22:03.355Z,54.40
2019-03-31T20:27:14.982Z,56.20
2019-03-31T20:32:45.822Z,56.30
2019-03-31T20:38:10.837Z,56.10
2019-03-31T20:43:28.394Z,56.10
2019-03-31T20:48:28.053Z,56.40
2019-03-31T20:53:28.023Z,56.70
2019-03-31T20:58:27.730Z,56.80
2019-03-31T21:03:27.375Z,56.50
2019-03-31T21:08:27.118Z,56.80
2019-03-31T21:13:26.862Z,57.40
2019-03-31T21:18:26.495Z,57.10
2019-03-31T21:23:26.162Z,57.50
2019-03-31T21:28:25.850Z,57.70
2019-03-31T21:33:25.591Z,57.50
2019-03-31T21:38:25.234Z,57.90
2019-03-31T21:43:25.255Z,57.70
2019-03-31T21:48:24.907Z,58.00
2019-03-31T21:53:24.651Z,58.20
2019-03-31T21:58:24.294Z,58.30
2019-03-31T22:03:24.098Z,58.50
2019-03-31T22:08:23.742Z,58.50
2019-03-31T22:13:23.371Z,58.10
2019-03-31T22:18:23.150Z,58.80
2019-03-31T22:23:23.082Z,58.80
2019-03-31T22:28:22.711Z,58.60
2019-03-31T22:33:22.643Z,58.70
2019-03-31T22:38:22.303Z,58.70
2019-03-31T22:43:22.195Z,58.80
2019-03-31T22:48:21.830Z,58.90
2019-03-31T22:53:21.474Z,58.80
2019-03-31T22:58:21.157Z,58.90
2019-03-31T23:03:20.790Z,59.70
2019-03-31T23:08:20.462Z,58.80
2019-03-31T23:13:20.123Z,59.10
2019-03-31T23:18:19.833Z,59.30
2019-03-31T23:23:19.502Z,59.30
2019-03-31T23:28:19.139Z,59.30
2019-03-31T23:33:18.762Z,59.60
2019-03-31T23:38:18.499Z,59.70
2019-03-31T23:43:18.415Z,59.50
2019-03-31T23:48:18.071Z,59.70
2019-03-31T23:53:17.725Z,59.70
2019-03-31T23:58:18.336Z,60.70
